Date,TemperatureHighF,TemperatureAvgF,TemperatureLowF,DewpointHighF,DewpointAvgF,DewpointLowF,HumidityHigh,HumidityAvg,HumidityLow,PressureMaxIn,PressureMinIn,WindSpeedMaxMPH,WindSpeedAvgMPH,GustSpeedMaxMPH,PrecipitationSumIn
2013-1-1,20.0,13.6,2.0,13.0,8.0,-3.0,85,78,65,0.00,40.00,8,4,19,0.00
2013-1-2,16.0,11.7,-7.0,11.0,6.1,-18.0,83,77,70,0.00,40.00,8,5,23,0.00
2013-1-3,44.0,15.5,-11.0,9.0,-2.8,-18.0,78,51,11,0.00,40.00,4,2,7,0.05
2013-1-4,48.0,22.2,8.0,6.0,-1.4,-10.0,57,38,15,0.00,40.00,4,2,8,0.01
2013-1-5,28.0,19.6,10.0,14.0,9.7,2.0,87,66,45,0.00,40.00,10,4,24,0.00
2013-1-6,41.0,21.7,4.0,10.0,3.2,-6.0,87,50,21,0.00,40.00,9,3,17,0.00
2013-1-7,34.0,22.1,9.0,19.0,10.8,5.0,87,63,44,0.00,40.00,5,2,10,0.00
2013-1-8,32.0,26.6,21.0,19.0,13.5,8.0,68,57,48,0.00,40.00,12,8,31,0.00
2013-1-9,47.0,30.4,19.0,20.0,14.4,9.0,72,53,27,0.00,40.00,5,4,13,0.00
2013-1-10,41.0,36.3,30.0,14.0,9.4,5.0,42,32,25,0.00,40.00,8,5,17,0.00
2013-1-11,35.0,14.3,-9.0,21.0,5.5,-18.0,88,69,44,0.00,40.00,8,4,20,0.00
2013-1-12,4.0,-2.5,-9.0,-5.0,-10.8,-18.0,70,66,63,0.00,40.00,8,4,22,0.00
2013-1-13,8.0,-1.7,-8.0,-4.0,-9.7,-15.0,76,68,56,0.00,40.00,5,2,12,0.00
2013-1-14,7.0,-2.0,-13.0,-2.0,-10.0,-21.0,75,68,52,0.00,40.00,6,2,15,0.00
2013-1-15,25.0,14.0,-12.0,21.0,8.1,-20.0,87,77,56,0.00,40.00,10,6,22,0.00
2013-1-16,31.0,25.1,19.0,20.0,15.0,13.0,86,66,46,0.00,40.00,10,5,26,0.07
2013-1-17,36.0,22.6,12.0,16.0,12.2,8.0,86,67,40,0.00,40.00,6,2,14,0.09
2013-1-18,43.0,34.0,22.0,9.0,6.2,4.0,57,31,20,0.00,40.00,10,5,21,0.08
2013-1-19,35.0,28.2,18.0,17.0,10.9,8.0,92,50,36,0.00,40.00,10,6,28,0.02
2013-1-20,24.0,16.4,9.0,15.0,7.8,3.0,89,70,48,0.00,40.00,9,5,22,0.00
2013-1-21,26.0,16.2,7.0,17.0,8.8,2.0,82,73,48,0.00,40.00,10,4,20,0.01
2013-1-22,37.0,28.5,23.0,8.0,3.9,-6.0,49,35,19,0.00,40.00,9,4,22,0.01
2013-1-23,43.0,31.7,22.0,10.0,0.6,-6.0,45,27,14,0.00,40.00,5,2,16,0.00
2013-1-24,49.0,31.0,20.0,21.0,11.3,5.0,73,46,21,0.00,40.00,8,3,19,0.00
2013-1-25,44.0,26.9,13.0,21.0,13.2,9.0,87,60,25,0.00,40.00,7,2,15,0.00
2013-1-26,50.0,32.1,21.0,20.0,18.0,16.0,82,59,26,0.00,40.00,4,2,7,0.00
2013-1-27,44.0,32.8,24.0,28.0,22.7,15.0,89,67,47,0.00,40.00,5,2,11,0.00
2013-1-28,30.0,25.0,16.0,27.0,21.1,11.0,93,85,76,0.00,40.00,3,2,7,0.00
2013-1-29,23.0,11.5,0.0,11.0,4.1,-7.0,86,73,52,0.00,40.00,7,3,15,0.02
2013-1-30,17.0,9.5,-4.0,11.0,3.0,-9.0,81,75,62,0.00,40.00,9,6,25,0.02
2013-1-31,20.0,10.4,-1.0,14.0,3.5,-8.0,86,73,60,0.00,40.00,11,8,30,0.00
2013-2-1,31.0,25.2,20.0,24.0,21.2,17.0,92,85,72,0.00,40.00,9,6,22,0.05
2013-2-2,29.0,24.0,19.0,22.0,17.0,15.0,90,75,56,0.00,40.00,14,8,39,0.04
2013-2-3,42.0,26.8,13.0,17.0,11.6,4.0,87,57,23,0.00,40.00,10,4,28,0.08
2013-2-4,36.0,23.4,11.0,16.0,12.8,7.0,86,66,42,0.00,40.00,11,4,26,0.02
2013-2-5,36.0,28.4,20.0,22.0,18.8,13.0,78,67,51,0.00,40.00,6,4,18,0.01
2013-2-6,40.0,24.7,11.0,20.0,14.2,7.0,87,67,41,0.00,40.00,7,3,14,0.01
2013-2-7,35.0,21.6,8.0,14.0,9.7,4.0,85,62,38,0.00,40.00,8,4,17,0.00
2013-2-8,43.0,26.8,13.0,17.0,8.2,-5.0,79,49,14,0.00,40.00,7,4,14,0.00
2013-2-9,34.0,21.6,12.0,13.0,8.6,3.0,81,58,33,0.00,40.00,7,4,18,0.00
2013-2-10,19.0,13.7,6.0,12.0,7.1,0.0,83,75,63,0.00,40.00,11,8,35,0.00
2013-2-11,23.0,9.3,2.0,7.0,-0.1,-7.0,78,66,34,0.00,40.00,7,4,20,0.00
2013-2-12,32.0,18.9,4.0,14.0,6.7,-4.0,80,60,36,0.00,40.00,9,3,18,0.00
2013-2-13,32.0,23.7,18.0,24.0,16.5,11.0,89,74,52,0.00,40.00,13,6,32,0.01
2013-2-14,18.0,12.6,3.0,11.0,5.7,-5.0,83,73,53,0.00,40.00,9,6,26,0.03
2013-2-15,21.0,11.8,-3.0,11.0,3.0,-9.0,85,69,39,0.00,40.00,7,3,18,0.04
2013-2-16,38.0,29.1,18.0,21.0,18.2,13.0,82,64,47,0.00,40.00,10,5,22,0.04
2013-2-17,42.0,24.8,13.0,21.0,14.8,9.0,87,69,33,0.00,40.00,10,6,23,0.02
2013-2-18,21.0,14.5,4.0,14.0,5.8,-3.0,80,69,50,0.00,40.00,10,7,25,0.00
2013-2-19,28.0,11.5,-8.0,13.0,2.5,-15.0,84,68,40,0.00,40.00,11,6,26,0.00
2013-2-20,30.0,18.8,10.0,17.0,11.7,6.0,90,75,52,0.00,40.00,9,5,18,0.00
2013-2-21,26.0,18.6,15.0,16.0,13.7,11.0,89,81,61,0.00,40.00,4,2,10,0.03
2013-2-22,27.0,18.1,8.0,14.0,8.7,3.0,86,69,41,0.00,40.00,8,4,25,0.01
2013-2-23,37.0,20.6,-2.0,20.0,9.3,-8.0,85,64,33,0.00,40.00,5,2,10,0.01
2013-2-24,25.0,18.5,4.0,20.0,13.6,-1.0,88,81,66,0.00,40.00,5,3,14,0.01
2013-2-25,35.0,16.2,-6.0,13.0,0.3,-12.0,83,54,25,0.00,40.00,5,3,9,0.01
2013-2-26,29.0,17.7,4.0,18.0,11.0,-1.0,85,75,64,0.00,40.00,7,5,20,0.01
2013-2-27,30.0,18.6,6.0,9.0,6.1,1.0,81,59,39,0.00,40.00,10,6,24,0.00
2013-2-28,32.0,18.7,4.0,17.0,10.2,-1.0,88,72,43,0.00,40.00,8,3,18,0.00
2013-3-1,37.0,26.4,16.0,27.0,13.1,2.0,85,60,28,0.00,40.00,6,4,23,0.03
2013-3-2,46.0,35.4,27.0,26.0,23.1,20.0,81,63,41,0.00,40.00,10,3,23,0.01
2013-3-3,49.0,36.3,22.0,30.0,22.4,16.0,86,60,33,0.00,40.00,8,3,23,0.00
2013-3-4,20.0,11.2,5.0,16.0,3.3,-5.0,84,70,57,0.00,40.00,13,10,35,0.00
2013-3-5,29.0,16.5,4.0,6.0,-3.5,-12.0,60,42,18,0.00,40.00,7,4,21,0.01
2013-3-6,45.0,29.2,10.0,18.0,9.7,2.0,77,48,22,0.00,40.00,8,4,19,0.01
2013-3-7,47.0,35.4,27.0,25.0,19.1,15.0,80,52,39,0.00,40.00,6,3,12,0.00
2013-3-8,40.0,32.0,25.0,26.0,20.3,6.0,88,63,34,0.00,40.00,9,4,20,0.00
2013-3-9,32.0,24.9,16.0,23.0,15.4,7.0,91,69,42,0.00,40.00,12,7,30,0.00
2013-3-10,40.0,25.4,10.0,9.0,-1.0,-15.0,76,38,10,0.00,40.00,8,4,21,0.00
2013-3-11,33.0,26.1,16.0,22.0,12.7,6.0,86,58,38,0.00,40.00,10,6,25,0.00
2013-3-12,29.0,18.7,8.0,8.0,0.3,-7.0,66,47,24,0.00,40.00,10,5,23,0.00
2013-3-13,49.0,36.3,24.0,23.0,18.0,7.0,69,48,36,0.00,40.00,10,4,25,0.00
2013-3-14,52.0,42.2,29.0,25.0,22.9,20.0,81,49,31,0.00,40.00,6,2,12,0.00
2013-3-15,51.0,41.1,31.0,24.0,21.4,17.0,73,49,26,0.00,40.00,9,4,25,0.00
2013-3-16,33.0,28.9,23.0,28.0,23.6,14.0,93,81,47,0.00,40.00,5,2,11,0.01
2013-3-17,35.0,24.3,13.0,27.0,19.4,9.0,93,82,66,0.00,40.00,10,5,29,0.15
2013-3-18,26.0,15.9,7.0,11.0,4.2,-7.0,85,62,26,0.00,40.00,13,8,29,0.09
2013-3-19,26.0,16.1,-4.0,14.0,5.4,-12.0,85,65,40,0.00,40.00,8,4,20,0.02
2013-3-20,37.0,18.2,-7.0,19.0,3.4,-13.0,78,56,20,0.00,40.00,7,4,14,0.24
2013-3-21,45.0,27.1,16.0,27.0,19.2,13.0,90,74,37,0.00,40.00,7,3,21,0.05
2013-3-22,32.0,20.7,12.0,19.0,13.9,4.0,88,76,44,0.00,40.00,7,3,20,0.10
2013-3-23,22.0,10.8,1.0,6.0,-1.1,-5.0,81,60,37,0.00,40.00,6,3,18,0.22
2013-3-24,14.0,6.6,0.0,0.0,-3.8,-7.0,80,63,38,0.00,40.00,8,5,20,0.02
2013-3-25,32.0,11.5,-8.0,6.0,-4.3,-15.0,76,52,29,0.00,40.00,6,3,11,0.02
2013-3-26,39.0,23.5,5.0,5.0,0.0,-5.0,61,38,18,0.00,40.00,7,3,16,0.01
2013-3-27,45.0,23.9,6.0,11.0,3.9,-1.0,73,47,21,0.00,40.00,5,3,11,0.00
2013-3-28,48.0,41.4,29.0,24.0,22.0,19.0,78,49,31,0.00,40.00,7,3,15,0.00
2013-3-29,52.0,39.7,25.0,27.0,21.3,16.0,78,51,27,0.00,40.00,6,3,14,0.00
2013-3-30,43.0,34.4,28.0,30.0,24.7,-99.9,92,73,46,0.00,40.00,8,4,21,0.01
2013-3-31,43.0,30.8,17.0,24.0,18.8,13.0,84,62,43,0.00,40.00,10,4,25,0.01
2013-4-1,41.0,27.4,11.0,20.0,14.7,7.0,89,63,32,0.00,40.00,5,2,11,0.00
2013-4-2,48.0,32.0,14.0,21.0,15.3,10.0,87,55,23,0.00,40.00,5,3,13,0.00
2013-4-3,55.0,40.3,28.0,30.0,22.1,14.0,85,52,24,0.00,40.00,6,3,19,0.00
2013-4-4,54.0,39.5,25.0,31.0,26.0,22.0,93,62,32,0.00,40.00,7,4,15,0.00
2013-4-5,58.0,44.5,31.0,32.0,26.7,24.0,91,53,28,0.00,40.00,9,4,21,0.00
2013-4-6,49.0,39.1,28.0,32.0,27.3,21.0,95,66,38,0.00,40.00,9,4,20,0.10
2013-4-7,52.0,38.9,27.0,32.0,27.0,21.0,87,65,33,0.00,40.00,6,3,18,0.01
2013-4-8,40.0,26.5,8.0,32.0,21.8,2.0,93,83,68,0.00,40.00,6,4,18,0.01
2013-4-9,10.0,4.9,1.0,3.0,-1.1,-5.0,79,75,73,0.00,40.00,8,6,18,0.01
2013-4-10,28.0,13.9,2.0,21.0,8.2,-5.0,82,78,72,0.00,40.00,6,4,20,0.27
2013-4-11,33.0,18.5,-2.0,26.0,12.6,-8.0,85,78,74,0.00,40.00,9,5,28,0.02
2013-4-12,30.0,24.4,11.0,23.0,17.0,1.0,84,74,59,0.00,40.00,9,6,23,0.02
2013-4-13,45.0,29.6,5.0,33.0,20.9,0.0,92,73,36,0.00,40.00,8,4,17,0.05
2013-4-14,33.0,22.1,9.0,31.0,16.7,2.0,95,80,69,0.00,40.00,5,0,13,0.05
2013-4-15,36.0,17.4,0.0,16.0,6.5,-6.0,86,65,29,0.00,40.00,3,0,13,0.01
2013-4-16,25.0,17.1,10.0,14.0,10.9,4.0,88,77,61,0.00,40.00,0,0,0,0.06
2013-4-17,25.0,17.3,10.0,14.0,10.8,5.0,84,76,62,0.00,40.00,0,0,0,0.18
2013-4-18,29.0,17.8,8.0,8.0,4.7,1.0,78,58,37,0.00,40.00,8,2,21,0.10
2013-4-19,36.0,28.3,22.0,28.0,21.2,11.0,94,76,51,0.00,40.00,8,6,18,0.01
2013-4-20,45.0,34.5,26.0,31.0,26.5,23.0,95,75,44,0.00,40.00,8,4,21,0.01
2013-4-21,43.0,32.6,25.0,32.0,26.8,21.0,96,81,47,0.00,40.00,5,2,12,0.32
2013-4-22,25.0,17.8,1.0,22.0,11.0,-5.0,89,75,59,0.00,40.00,6,4,15,0.21
2013-4-23,29.0,12.5,-9.0,11.0,0.5,-16.0,79,61,36,0.00,40.00,7,3,16,0.03
2013-4-24,29.0,22.4,10.0,18.0,14.3,6.0,87,72,56,0.00,40.00,12,6,27,0.01
2013-4-25,52.0,35.7,15.0,19.0,14.3,9.0,89,49,19,0.00,40.00,7,3,15,0.01
2013-4-26,55.0,39.2,22.0,22.0,17.5,14.0,72,46,23,0.00,40.00,6,3,11,0.00
2013-4-27,59.0,44.5,26.0,28.0,21.2,17.0,69,44,23,0.00,40.00,7,4,16,0.00
2013-4-28,55.0,42.9,32.0,36.0,28.0,22.0,95,58,36,0.00,40.00,6,3,14,0.13
2013-4-29,59.0,45.1,33.0,37.0,30.3,21.0,96,63,24,0.00,40.00,9,5,22,0.14
2013-4-30,38.0,31.3,24.0,28.0,20.4,11.0,88,66,38,0.00,40.00,8,4,18,0.00
2013-5-1,34.0,24.9,16.0,23.0,13.4,8.0,85,64,33,0.00,40.00,5,3,15,0.15
2013-5-2,41.0,26.1,11.0,19.0,10.8,6.0,85,57,23,0.00,40.00,9,4,18,0.01
2013-5-3,53.0,34.9,16.0,20.0,14.5,10.0,82,49,22,0.00,40.00,4,2,12,0.00
2013-5-4,48.0,36.1,22.0,18.0,15.2,12.0,74,45,28,0.00,40.00,6,3,12,0.00
2013-5-5,55.0,37.0,18.0,20.0,14.5,10.0,75,44,22,0.00,40.00,6,3,14,0.00
2013-5-6,59.0,41.9,22.0,23.0,20.3,15.0,76,47,23,0.00,40.00,6,3,14,0.00
2013-5-7,60.0,46.1,29.0,35.0,27.1,20.0,85,51,27,0.00,40.00,4,2,12,0.00
2013-5-8,60.0,46.1,28.0,35.0,29.0,25.0,92,57,29,0.00,40.00,6,3,18,0.00
2013-5-9,54.0,41.6,29.0,41.0,33.1,26.0,95,75,34,0.00,40.00,6,2,14,0.20
2013-5-10,62.0,43.5,29.0,37.0,26.6,-99.9,97,63,21,0.00,40.00,7,4,20,0.01
2013-5-11,57.0,41.6,24.0,26.0,18.6,-99.9,74,45,25,0.00,40.00,8,4,20,0.01
2013-5-12,70.0,50.8,29.0,34.0,28.0,23.0,83,48,21,0.00,40.00,8,4,18,0.00
2013-5-13,78.0,62.3,41.0,39.0,33.1,27.0,70,39,17,0.00,40.00,7,4,16,0.00
2013-5-14,74.0,60.5,46.0,41.0,34.6,27.0,60,39,20,0.00,40.00,8,4,17,0.00
2013-5-15,66.0,54.4,45.0,44.0,32.4,25.0,87,45,33,0.00,40.00,9,6,21,0.12
2013-5-16,63.0,50.8,43.0,47.0,28.3,-99.9,93,70,52,0.00,40.00,8,5,18,0.34
2013-5-17,71.0,54.8,38.0,50.0,41.2,-99.9,99,72,38,0.00,40.00,8,4,18,0.20
2013-5-18,65.0,52.6,40.0,49.0,44.5,38.0,97,76,49,0.00,40.00,6,3,15,0.96
2013-5-19,47.0,44.6,40.0,45.0,42.3,37.0,96,91,82,0.00,40.00,8,4,18,1.21
2013-5-20,44.0,39.7,34.0,37.0,34.7,32.0,92,82,69,0.00,40.00,12,9,29,0.05
2013-5-21,46.0,38.2,34.0,36.0,33.5,32.0,94,84,69,0.00,40.00,9,6,24,0.09
2013-5-22,55.0,40.5,29.0,41.0,35.9,28.0,98,85,58,0.00,40.00,5,3,15,0.01
2013-5-23,53.0,44.4,36.0,42.0,37.1,31.0,98,77,58,0.00,40.00,12,9,32,0.01
2013-5-24,68.0,55.4,45.0,48.0,39.1,15.0,99,64,13,0.00,40.00,12,7,28,0.01
2013-5-25,70.0,58.0,42.0,52.0,48.1,41.0,99,73,41,0.00,40.00,9,5,22,0.00
2013-5-26,70.0,56.9,41.0,53.0,40.4,-99.9,99,71,38,0.00,40.00,8,4,15,0.00
2013-5-27,65.0,53.9,42.0,54.0,48.5,30.0,99,83,56,0.00,40.00,8,4,22,0.09
2013-5-28,63.0,48.5,29.0,44.0,34.6,27.0,92,64,31,0.00,40.00,8,3,19,0.03
2013-5-29,59.0,48.9,42.0,47.0,43.2,40.0,95,82,53,0.00,40.00,7,3,16,0.08
2013-5-30,45.0,41.5,36.0,43.0,39.8,34.0,97,94,91,0.00,40.00,10,7,31,0.65
2013-5-31,39.0,36.4,34.0,36.0,34.3,32.0,94,92,89,0.00,40.00,11,9,31,0.66
2013-6-1,53.0,41.9,29.0,34.0,30.8,-99.9,93,70,44,0.00,40.00,9,6,25,0.07
2013-6-2,64.0,48.8,27.0,43.0,36.2,25.0,96,66,38,0.00,40.00,9,5,18,0.00
2013-6-3,62.0,53.2,42.0,45.0,31.3,-99.9,69,49,33,0.00,40.00,11,5,22,0.00
2013-6-4,50.0,42.8,34.0,32.0,29.7,26.0,88,60,46,0.00,40.00,9,7,22,0.00
2013-6-5,53.0,40.5,30.0,37.0,32.6,28.0,93,75,49,0.00,40.00,6,4,15,0.00
2013-6-6,64.0,46.0,26.0,40.0,31.8,24.0,94,64,28,0.00,40.00,6,3,15,0.00
2013-6-7,70.0,52.1,33.0,47.0,37.3,31.0,97,65,27,0.00,40.00,7,3,20,0.47
2013-6-8,58.0,50.4,39.0,46.0,40.0,34.0,98,71,42,0.00,40.00,11,5,28,0.92
2013-6-9,70.0,55.8,35.0,44.0,37.2,33.0,94,55,28,0.00,40.00,7,3,14,0.02
2013-6-10,79.0,65.1,45.0,55.0,45.8,40.0,84,54,26,0.00,40.00,7,4,15,0.00
2013-6-11,69.0,58.9,47.0,57.0,52.4,44.0,98,81,61,0.00,40.00,7,4,17,0.34
2013-6-12,66.0,54.7,46.0,54.0,47.1,41.0,96,77,48,0.00,40.00,6,4,15,0.34
2013-6-13,70.0,55.6,45.0,52.0,43.9,36.0,84,66,43,0.00,40.00,10,6,22,0.02
2013-6-14,70.0,61.5,50.0,51.0,42.3,34.0,84,53,27,0.00,40.00,7,5,20,0.02
2013-6-15,65.0,54.8,44.0,44.0,39.6,34.0,86,60,31,0.00,40.00,6,3,12,0.00
2013-6-16,72.0,58.1,45.0,54.0,46.8,39.0,97,69,30,0.00,40.00,6,3,13,0.00
2013-6-17,68.0,54.2,45.0,51.0,45.2,40.0,93,74,41,0.00,40.00,6,2,14,0.07
2013-6-18,73.0,56.9,37.0,50.0,44.7,36.0,97,68,38,0.00,40.00,7,4,15,0.01
2013-6-19,71.0,62.2,51.0,58.0,49.2,40.0,80,63,46,0.00,40.00,10,7,25,0.00
2013-6-20,76.0,62.6,52.0,54.0,43.9,22.0,96,59,13,0.00,40.00,7,4,20,0.00
2013-6-22,67.0,55.9,43.0,53.0,47.3,41.0,96,75,48,0.00,40.00,8,4,22,0.39
2013-6-23,65.0,52.5,36.0,44.0,38.2,35.0,96,63,35,0.00,40.00,7,3,16,0.13
2013-6-24,81.0,64.8,50.0,53.0,42.6,34.0,84,50,19,0.00,40.00,7,4,19,0.00
2013-6-25,70.0,62.8,48.0,49.0,43.1,35.0,86,50,36,0.00,40.00,7,4,16,0.00
2013-6-26,79.0,64.4,45.0,51.0,45.2,41.0,93,54,26,0.00,40.00,6,3,14,0.00
2013-6-27,76.0,62.8,45.0,54.0,48.0,44.0,95,63,33,0.00,40.00,6,3,17,0.00
2013-6-28,77.0,62.4,41.0,48.0,44.0,39.0,94,56,31,0.00,40.00,6,3,15,0.00
2013-6-29,74.0,59.1,43.0,50.0,43.8,39.0,96,62,30,0.00,40.00,5,3,15,0.00
2013-6-30,71.0,55.8,40.0,50.0,43.4,37.0,94,67,38,0.00,40.00,4,2,11,0.00
2013-7-1,69.0,57.0,45.0,54.0,48.4,43.0,94,74,54,0.00,40.00,5,2,12,0.37
2013-7-2,71.0,57.2,41.0,50.0,45.2,40.0,97,68,39,0.00,40.00,5,2,13,0.04
2013-7-3,77.0,62.9,43.0,49.0,43.3,39.0,85,53,29,0.00,40.00,5,2,11,0.00
2013-7-4,76.0,59.8,44.0,54.0,48.2,39.0,89,68,41,0.00,40.00,5,2,17,0.04
2013-7-5,73.0,62.7,53.0,56.0,50.9,47.0,96,68,43,0.00,40.00,7,4,18,0.15
2013-7-6,77.0,60.1,45.0,55.0,49.9,44.0,97,72,39,0.00,40.00,5,2,18,0.14
2013-7-7,73.0,61.0,49.0,56.0,51.6,44.0,95,74,50,0.00,40.00,5,3,12,0.20
2013-7-8,75.0,62.0,53.0,60.0,52.3,46.0,92,72,45,0.00,40.00,8,5,17,0.21
2013-7-9,75.0,62.1,45.0,55.0,49.4,42.0,91,66,45,0.00,40.00,5,2,14,0.14
2013-7-10,79.0,64.5,45.0,57.0,49.2,42.0,94,62,27,0.00,40.00,9,4,17,0.00
2013-7-11,85.0,70.0,53.0,55.0,50.0,43.0,93,56,23,0.00,40.00,8,4,24,0.30
2013-7-12,77.0,66.9,56.0,56.0,51.9,47.0,94,61,39,0.00,40.00,10,4,19,0.48
2013-7-13,80.0,65.8,50.0,59.0,53.2,43.0,97,69,27,0.00,40.00,5,2,13,0.39
2013-7-14,71.0,61.1,54.0,57.0,53.7,50.0,95,78,57,0.00,40.00,4,3,13,0.01
2013-7-15,72.0,63.3,55.0,60.0,57.1,52.0,96,82,59,0.00,40.00,8,5,21,0.00
2013-7-16,78.0,72.1,59.0,48.0,47.2,45.0,67,43,31,0.00,40.00,6,4,12,0.00
2013-7-17,77.0,65.5,49.0,55.0,50.2,47.0,95,61,39,0.00,40.00,7,3,15,0.00
2013-7-18,81.0,68.4,51.0,57.0,51.1,47.0,90,57,34,0.00,40.00,4,2,11,0.00
2013-7-19,74.0,63.7,52.0,55.0,50.3,43.0,96,64,46,0.00,40.00,7,3,22,0.29
2013-7-20,78.0,64.2,53.0,58.0,52.1,41.0,92,68,29,0.00,40.00,6,3,14,0.03
2013-7-21,79.0,64.2,53.0,56.0,50.9,43.0,90,66,30,0.00,40.00,8,3,15,0.01
2013-7-22,78.0,63.1,47.0,52.0,47.9,42.0,95,62,35,0.00,40.00,8,3,31,0.27
2013-7-23,76.0,62.0,49.0,56.0,51.6,46.0,92,71,35,0.00,40.00,7,3,16,0.27
2013-7-24,78.0,59.5,43.0,56.0,48.0,41.0,97,71,32,0.00,40.00,5,2,13,0.32
2013-7-25,71.0,60.6,48.0,51.0,47.1,43.0,93,64,42,0.00,40.00,6,4,22,0.63
2013-7-26,65.0,28.4,42.0,53.0,-18.1,-99.9,96,48,3,0.00,40.00,5,3,15,0.35
2013-7-27,-200.0,0.0,200.0,-99.9,-99.9,-99.9,3,3,3,0.00,40.00,6,3,13,0.11
2013-7-28,-200.0,0.0,200.0,-99.9,-99.9,-99.9,3,3,3,0.00,40.00,6,3,13,0.03
2013-7-29,-200.0,0.0,200.0,-99.9,-99.9,-99.9,3,3,3,0.00,40.00,9,2,18,0.03
2013-7-30,-200.0,0.0,200.0,-99.9,-99.9,-99.9,3,3,3,0.00,40.00,6,3,15,0.15
2013-7-31,-200.0,0.0,200.0,-99.9,-99.9,-99.9,3,3,3,0.00,40.00,4,2,13,0.08
2013-8-1,-200.0,0.0,200.0,-99.9,-99.9,-99.9,3,3,3,0.00,40.00,11,3,21,0.02
2013-8-2,-200.0,0.0,200.0,-99.9,-99.9,-99.9,3,3,3,0.00,40.00,11,4,24,0.02
2013-8-3,-200.0,0.0,200.0,-99.9,-99.9,-99.9,3,3,3,0.00,40.00,9,4,20,1.36
2013-8-4,-200.0,0.0,200.0,-99.9,-99.9,-99.9,3,3,3,0.00,40.00,8,2,18,0.01
2013-8-5,-200.0,0.0,200.0,-99.9,-99.9,-99.9,3,3,3,0.00,40.00,8,3,26,1.26
2013-8-6,-200.0,0.0,200.0,-99.9,-99.9,-99.9,3,3,3,0.00,40.00,6,2,13,1.35
2013-8-7,-200.0,0.0,200.0,-99.9,-99.9,-99.9,3,3,3,0.00,40.00,6,2,17,0.10
2013-8-8,-200.0,0.0,200.0,-99.9,-99.9,-99.9,3,3,3,0.00,40.00,6,2,14,0.15
2013-8-9,-200.0,0.0,200.0,-99.9,-99.9,-99.9,3,3,3,0.00,40.00,5,2,13,1.16
2013-8-10,-200.0,0.0,200.0,-99.9,-99.9,-99.9,3,3,3,0.00,40.00,6,3,12,0.56
2013-8-11,-200.0,0.0,200.0,-99.9,-99.9,-99.9,3,3,3,0.00,40.00,6,3,19,0.05
2013-8-12,-200.0,0.0,200.0,-99.9,-99.9,-99.9,3,3,3,0.00,40.00,5,2,13,0.05
2013-8-13,-200.0,0.0,200.0,-99.9,-99.9,-99.9,3,3,3,0.00,40.00,5,2,14,0.25
2013-8-14,-200.0,0.0,200.0,-99.9,-99.9,-99.9,3,3,3,0.00,40.00,8,2,21,0.22
2013-8-15,-200.0,0.0,200.0,-99.9,-99.9,-99.9,3,3,3,0.00,40.00,5,2,12,0.08
2013-8-16,-200.0,0.0,200.0,-99.9,-99.9,-99.9,3,3,3,0.00,40.00,5,2,12,0.01
2013-8-17,-200.0,0.0,200.0,-99.9,-99.9,-99.9,3,3,3,0.00,40.00,4,2,10,0.01
2013-8-18,-200.0,0.0,200.0,-99.9,-99.9,-99.9,3,3,3,0.00,40.00,5,2,17,0.00
2013-8-19,-200.0,0.0,200.0,-99.9,-99.9,-99.9,3,3,3,0.00,40.00,5,2,12,0.00
2013-8-20,-200.0,0.0,200.0,-99.9,-99.9,-99.9,3,3,3,0.00,40.00,6,2,11,0.00
2013-8-21,-200.0,0.0,200.0,-99.9,-99.9,-99.9,3,3,3,0.00,40.00,6,2,12,0.00
2013-8-22,-200.0,0.0,200.0,-99.9,-99.9,-99.9,3,3,3,0.00,40.00,6,3,13,0.00
2013-8-23,-200.0,0.0,200.0,-99.9,-99.9,-99.9,3,3,3,0.00,40.00,7,3,15,0.00
2013-8-24,-200.0,0.0,200.0,-99.9,-99.9,-99.9,3,3,3,0.00,40.00,6,3,16,0.00
2013-8-25,-200.0,0.0,200.0,-99.9,-99.9,-99.9,3,3,3,0.00,40.00,5,2,11,0.00
2013-8-26,-200.0,0.0,200.0,-99.9,-99.9,-99.9,3,3,3,0.00,40.00,6,2,15,0.00
2013-8-27,-200.0,0.0,200.0,-99.9,-99.9,-99.9,3,3,3,0.00,40.00,4,2,10,0.00
2013-8-28,-200.0,0.0,200.0,-99.9,-99.9,-99.9,3,3,3,0.00,40.00,7,5,21,0.00
2013-8-29,-200.0,0.0,200.0,-99.9,-99.9,-99.9,3,3,3,0.00,40.00,5,2,13,0.00
2013-8-30,-200.0,0.0,200.0,-99.9,-99.9,-99.9,3,3,3,0.00,40.00,5,2,15,0.00
2013-8-31,-200.0,0.0,200.0,-99.9,-99.9,-99.9,3,3,3,0.00,40.00,5,2,17,0.00
2013-9-1,-200.0,0.0,200.0,-99.9,-99.9,-99.9,3,3,3,0.00,40.00,5,2,11,0.00
2013-9-2,-200.0,0.0,200.0,-99.9,-99.9,-99.9,3,3,3,0.00,40.00,5,3,12,0.00
2013-9-3,-200.0,0.0,200.0,-99.9,-99.9,-99.9,3,3,3,0.00,40.00,5,2,11,0.00
2013-9-4,-200.0,0.0,200.0,-99.9,-99.9,-99.9,3,3,3,0.00,40.00,4,2,14,0.39
2013-9-5,-200.0,0.0,200.0,-99.9,-99.9,-99.9,3,3,3,0.00,40.00,5,2,11,0.39
2013-9-6,-200.0,0.0,200.0,-99.9,-99.9,-99.9,3,3,3,0.00,40.00,4,1,26,0.10
2013-9-7,-200.0,0.0,200.0,-99.9,-99.9,-99.9,3,3,3,0.00,40.00,8,3,16,0.02
2013-9-8,-200.0,0.0,200.0,-99.9,-99.9,-99.9,3,3,3,0.00,40.00,7,3,22,0.88
2013-9-9,-200.0,0.0,200.0,-99.9,-99.9,-99.9,3,3,3,0.00,40.00,4,2,10,0.60
2013-9-10,-200.0,0.0,200.0,-99.9,-99.9,-99.9,3,3,3,0.00,40.00,5,2,11,0.01
2013-9-11,-200.0,0.0,200.0,-99.9,-99.9,-99.9,3,3,3,0.00,40.00,3,1,9,0.00
2013-9-12,-200.0,0.0,200.0,-99.9,-99.9,-99.9,3,3,3,0.00,40.00,6,3,15,0.00
2013-9-13,-200.0,0.0,200.0,-99.9,-99.9,-99.9,3,3,3,0.00,40.00,7,6,19,0.05
2013-9-14,-200.0,0.0,200.0,-99.9,-99.9,-99.9,3,3,3,0.00,40.00,6,4,19,0.04
2013-9-15,-200.0,0.0,200.0,-99.9,-99.9,-99.9,3,3,3,0.00,40.00,4,3,13,0.02
2013-9-16,-200.0,0.0,200.0,-99.9,-99.9,-99.9,3,3,3,0.00,40.00,9,6,19,0.00
2013-9-17,-200.0,0.0,200.0,-99.9,-99.9,-99.9,3,3,3,0.00,40.00,6,2,13,0.08
2013-9-18,-200.0,0.0,200.0,-99.9,-99.9,-99.9,3,3,3,0.00,40.00,4,1,8,0.08
2013-9-19,51.0,20.6,33.0,34.0,-38.2,-99.9,90,31,3,0.00,40.00,9,4,21,0.01
2013-9-20,62.0,44.1,28.0,36.0,31.2,27.0,99,66,28,0.00,40.00,5,2,12,0.00
2013-9-21,75.0,57.4,39.0,33.0,26.8,-99.9,71,36,15,0.00,40.00,6,3,13,0.00
2013-9-22,73.0,61.0,53.0,52.0,38.6,26.0,85,46,30,0.00,40.00,6,3,15,0.03
2013-9-23,51.0,45.5,32.0,48.0,42.3,29.0,98,89,61,0.00,40.00,8,4,27,0.22
2013-9-24,61.0,46.0,28.0,39.0,32.5,27.0,99,65,33,0.00,40.00,8,4,22,0.05
2013-9-25,70.0,55.6,37.0,43.0,35.1,29.0,80,50,23,0.00,40.00,9,4,20,0.00
2013-9-26,64.0,47.2,33.0,42.0,36.4,31.0,98,71,34,0.00,40.00,7,3,13,0.00
2013-9-27,38.0,34.0,30.0,36.0,33.0,29.0,100,97,88,0.00,40.00,4,2,11,0.14
2013-9-28,52.0,37.5,27.0,32.0,27.6,-99.9,98,72,43,0.00,40.00,8,3,17,0.05
2013-9-29,61.0,48.3,38.0,34.0,31.5,29.0,83,56,30,0.00,40.00,10,5,20,0.01
2013-9-30,67.0,52.2,38.0,38.0,32.6,30.0,78,50,27,0.00,40.00,11,5,25,0.00
2013-10-1,58.0,52.5,51.0,33.0,31.8,31.0,49,45,38,0.00,40.00,7,6,20,0.00
2013-10-2,57.0,45.7,35.0,34.0,31.5,27.0,90,59,40,0.00,40.00,6,3,17,0.00
2013-10-3,38.0,35.1,29.0,34.0,32.2,29.0,99,89,70,0.00,40.00,5,4,18,0.01
2013-10-4,28.0,23.5,21.0,28.0,22.5,18.0,98,95,93,0.00,40.00,11,8,35,0.01
2013-10-5,32.0,25.1,18.0,28.0,20.6,16.0,93,84,58,0.00,40.00,12,9,35,0.33
2013-10-6,54.0,42.1,32.0,33.0,29.1,24.0,84,62,40,0.00,40.00,8,5,23,0.01
2013-10-7,62.0,44.4,24.0,32.0,26.0,22.0,92,55,23,0.00,40.00,5,2,8,0.01
2013-10-8,59.0,45.0,34.0,35.0,28.8,25.0,83,56,28,0.00,40.00,3,2,8,0.00
2013-10-9,46.0,38.6,33.0,31.0,27.2,23.0,84,65,42,0.00,40.00,5,3,15,0.00
2013-10-10,51.0,41.6,30.0,41.0,37.0,28.0,99,85,65,0.00,40.00,6,2,12,0.00
2013-10-11,41.0,33.8,27.0,41.0,33.1,25.0,100,97,92,0.00,40.00,11,6,30,1.40
2013-10-12,43.0,32.0,21.0,30.0,23.5,-99.9,95,76,50,0.00,40.00,5,3,14,0.01
2013-10-13,53.0,41.0,33.0,39.0,34.9,30.0,97,80,55,0.00,40.00,9,3,17,0.00
2013-10-14,41.0,32.8,24.0,39.0,30.6,20.0,100,92,82,0.00,40.00,8,2,17,0.38
2013-10-15,31.0,25.0,19.0,22.0,19.7,13.0,94,81,67,0.00,40.00,5,1,16,0.01
2013-10-16,48.0,29.3,10.0,24.0,11.9,2.0,91,58,16,0.00,40.00,5,2,13,0.00
2013-10-17,30.0,25.6,18.0,26.0,18.4,13.0,90,75,53,0.00,40.00,7,4,21,0.00
2013-10-18,28.0,24.2,21.0,23.0,19.4,17.0,93,82,63,0.00,40.00,8,5,22,0.03
2013-10-19,47.0,35.7,26.0,27.0,22.8,-99.9,83,63,46,0.00,40.00,8,5,24,0.01
2013-10-20,36.0,32.0,28.0,31.0,26.8,23.0,94,81,69,0.00,40.00,8,6,26,0.04
2013-10-21,38.0,32.2,25.0,34.0,29.7,22.0,99,90,82,0.00,40.00,8,5,21,0.10
2013-10-22,44.0,37.5,32.0,34.0,32.5,29.0,92,82,60,0.00,40.00,8,5,20,0.05
2013-10-23,47.0,38.9,34.0,34.0,30.0,25.0,90,71,52,0.00,40.00,7,5,20,0.00
2013-10-24,43.0,34.6,26.0,32.0,28.5,24.0,98,79,60,0.00,40.00,5,3,13,0.00
2013-10-25,62.0,41.5,27.0,41.0,28.8,23.0,100,69,24,0.00,40.00,7,2,16,0.00
2013-10-26,53.0,43.1,35.0,29.0,20.5,-99.9,59,42,33,0.00,40.00,7,4,16,0.00
2013-10-27,59.0,42.5,26.0,32.0,24.6,19.0,99,56,22,0.00,40.00,6,3,14,0.00
2013-10-28,28.0,22.3,17.0,28.0,19.2,-99.9,99,93,89,0.00,40.00,9,4,22,0.00
2013-10-29,28.0,22.7,17.0,27.0,21.3,15.0,97,95,92,0.00,40.00,6,2,14,0.00
2013-10-30,35.0,28.2,19.0,33.0,26.8,17.0,98,94,89,0.00,40.00,4,1,9,0.07
2013-10-31,36.0,31.2,26.0,30.0,24.6,21.0,97,77,61,0.00,40.00,11,4,29,0.07
2013-11-1,36.0,29.5,20.0,29.0,21.2,15.0,96,72,45,0.00,40.00,13,7,29,0.06
2013-11-2,47.0,32.2,14.0,23.0,17.1,-99.9,91,60,36,0.00,40.00,8,4,16,0.01
2013-11-3,43.0,37.0,27.0,27.0,22.3,18.0,88,56,41,0.00,40.00,7,4,15,0.01
2013-11-4,30.0,25.0,20.0,21.0,16.1,11.0,91,70,46,0.00,40.00,7,4,16,0.00
2013-11-5,29.0,22.1,1.0,22.0,18.4,-3.0,92,85,70,0.00,40.00,4,2,9,0.13
2013-11-6,31.0,24.7,5.0,25.0,17.9,2.0,88,76,59,0.00,40.00,8,5,23,0.05
2013-11-7,42.0,29.2,15.0,26.0,20.4,13.0,93,71,49,0.00,40.00,5,3,15,0.19
2013-11-8,39.0,35.0,31.0,29.0,21.2,15.0,87,57,43,0.00,40.00,11,7,29,0.02
2013-11-9,37.0,29.6,21.0,22.0,17.8,-99.9,92,65,49,0.00,40.00,6,2,16,0.00
2013-11-10,51.0,36.4,20.0,27.0,23.6,18.0,93,63,36,0.00,40.00,5,3,14,0.00
2013-11-11,38.0,27.1,14.0,28.0,23.7,12.0,98,87,66,0.00,40.00,4,2,13,0.01
2013-11-12,49.0,34.0,7.0,26.0,14.4,-4.0,79,48,13,0.00,40.00,6,3,9,0.01
2013-11-13,55.0,40.0,25.0,32.0,22.5,14.0,94,53,22,0.00,40.00,5,2,10,0.02
2013-11-14,40.0,30.6,23.0,32.0,24.5,19.0,98,79,54,0.00,40.00,6,1,12,0.06
2013-11-15,42.0,33.8,27.0,26.0,21.3,15.0,79,61,36,0.00,40.00,7,2,13,0.04
2013-11-16,34.0,24.6,13.0,23.0,16.1,-99.9,92,74,53,0.00,40.00,8,3,17,0.00
2013-11-17,29.0,21.9,11.0,22.0,13.6,5.0,93,72,44,0.00,40.00,11,5,31,0.07
2013-11-18,43.0,29.0,6.0,19.0,13.2,2.0,86,54,34,0.00,40.00,4,2,9,0.01
2013-11-19,46.0,36.5,25.0,25.0,20.0,15.0,78,52,41,0.00,40.00,7,3,13,0.01
2013-11-20,44.0,29.7,12.0,26.0,19.7,5.0,87,69,40,0.00,40.00,8,3,16,0.00
2013-11-21,15.0,6.5,-12.0,6.0,-1.6,-19.0,84,70,34,0.00,40.00,4,2,11,0.00
2013-11-22,30.0,16.0,-12.0,-1.0,-9.2,-20.0,72,36,15,0.00,40.00,8,3,22,0.07
2013-11-23,33.0,21.0,5.0,8.0,2.0,-99.9,78,48,28,0.00,40.00,4,2,8,0.01
2013-11-24,53.0,32.7,19.0,25.0,9.8,-1.0,71,41,13,0.00,40.00,6,3,15,0.00
2013-11-25,34.0,26.4,20.0,20.0,15.3,10.0,81,63,50,0.00,40.00,8,4,20,0.00
2013-11-26,33.0,23.5,16.0,15.0,12.2,4.0,88,63,44,0.00,40.00,6,4,16,0.00
2013-11-27,48.0,31.9,17.0,16.0,13.9,9.0,91,52,26,0.00,40.00,8,4,23,0.00
2013-11-28,40.0,25.2,14.0,20.0,15.9,10.0,91,71,39,0.00,40.00,5,2,10,0.00
2013-11-29,47.0,33.0,19.0,18.0,16.0,13.0,90,54,28,0.00,40.00,8,3,19,0.00
2013-11-30,40.0,28.7,17.0,26.0,17.3,-99.9,87,68,45,0.00,40.00,5,2,13,0.00
2013-12-1,39.0,29.3,18.0,26.0,22.2,16.0,91,76,54,0.00,40.00,6,2,12,0.00
2013-12-2,43.0,33.3,26.0,28.0,25.0,21.0,88,72,52,0.00,40.00,7,3,16,0.00
2013-12-3,31.0,15.7,1.0,27.0,12.5,-5.0,97,87,78,0.00,40.00,5,3,11,0.00
2013-12-4,0.0,-4.4,-13.0,-5.0,-11.4,-20.0,78,71,65,0.00,40.00,6,4,16,0.00
2013-12-5,0.0,-9.8,-15.0,-16.0,-19.8,-24.0,70,61,46,0.00,40.00,7,4,17,0.00
2013-12-6,2.0,-11.0,-23.0,-12.0,-20.8,-31.0,72,61,44,0.00,40.00,5,2,10,0.00
2013-12-7,9.0,-5.6,-15.0,0.0,-13.9,-99.9,78,70,59,0.00,40.00,7,4,14,0.00
2013-12-8,10.0,-3.4,-9.0,-1.0,-11.8,-16.0,75,67,38,0.00,40.00,10,4,26,0.00
2013-12-9,11.0,1.2,-10.0,7.0,-6.5,-17.0,85,71,43,0.00,40.00,10,7,26,0.00
2013-12-10,18.0,10.2,0.0,14.0,5.7,-5.0,86,82,76,0.00,40.00,8,5,26,0.00
2013-12-11,20.0,10.0,-1.0,10.0,1.7,-6.0,81,69,52,0.00,40.00,7,3,14,0.08
2013-12-12,39.0,24.0,10.0,16.0,8.6,-2.0,80,54,35,0.00,40.00,5,2,11,0.07
2013-12-13,32.0,25.8,11.0,19.0,16.1,8.0,88,67,52,0.00,40.00,6,3,13,0.02
2013-12-14,30.0,24.7,20.0,20.0,16.3,-99.9,87,73,62,0.00,40.00,8,5,24,0.00
2013-12-15,38.0,32.4,27.0,20.0,17.9,14.0,70,55,45,0.00,40.00,10,4,38,0.00
2013-12-16,38.0,31.3,25.0,19.0,16.6,14.0,73,55,42,0.00,40.00,11,6,26,0.00
2013-12-17,42.0,31.3,21.0,19.0,16.5,14.0,81,56,37,0.00,40.00,7,4,17,0.00
2013-12-18,52.0,35.4,22.0,19.0,15.2,12.0,68,46,21,0.00,40.00,6,2,12,0.00
2013-12-19,28.0,17.3,1.0,19.0,9.9,-4.0,88,73,54,0.00,40.00,9,3,17,0.00
2013-12-20,23.0,8.5,-4.0,8.0,-2.7,-9.0,81,63,37,0.00,40.00,6,2,12,0.10
2013-12-21,24.0,12.2,-4.0,14.0,4.8,-99.9,84,75,60,0.00,40.00,5,2,11,0.01
2013-12-22,17.0,8.3,0.0,8.0,1.1,-9.0,84,73,57,0.00,40.00,7,4,15,0.01
2013-12-23,27.0,12.7,-5.0,24.0,5.9,-12.0,94,74,53,0.00,40.00,6,3,17,0.00
2013-12-24,30.0,24.2,14.0,26.0,18.9,11.0,94,81,48,0.00,40.00,8,5,23,0.01
2013-12-25,27.0,20.5,16.0,13.0,9.0,3.0,79,62,42,0.00,40.00,8,5,22,0.01
2013-12-26,39.0,30.4,24.0,19.0,14.7,4.0,67,52,36,0.00,40.00,8,5,27,0.00
2013-12-27,49.0,37.6,23.0,24.0,21.3,16.0,78,53,37,0.00,40.00,6,3,18,0.04
2013-12-28,38.0,20.1,-3.0,20.0,6.4,-99.9,79,60,33,0.00,40.00,11,5,24,0.01
2013-12-29,24.0,14.5,-7.0,15.0,7.6,-13.0,89,74,55,0.00,40.00,8,3,16,0.00
2013-12-30,26.0,21.3,16.0,20.0,17.8,13.0,92,86,72,0.00,40.00,9,3,24,0.00
2013-12-31,32.0,26.3,16.0,27.0,21.1,12.0,93,81,67,0.00,40.00,7,3,19,0.05
2014-1-1,25.0,18.6,12.0,21.0,13.0,9.0,91,79,65,0.00,40.00,8,4,20,0.02
2014-1-2,32.0,21.3,10.0,16.0,12.7,7.0,90,71,47,0.00,40.00,6,4,15,0.03